createdAt,value
2017-06-30T00:00:04.489Z,16.5
2017-06-30T00:00:25.155Z,16.6
2017-06-30T00:00:45.823Z,16.6
2017-06-30T00:01:06.989Z,16.5
2017-06-30T00:01:27.818Z,16.5
2017-06-30T00:01:48.474Z,16.5
2017-06-30T00:02:09.186Z,16.6
2017-06-30T00:02:29.855Z,16.7
2017-06-30T00:02:50.525Z,16.6
2017-06-30T00:03:11.165Z,16.5
2017-06-30T00:03:32.496Z,16.5
2017-06-30T00:03:53.143Z,16.6
2017-06-30T00:04:13.823Z,16.5
2017-06-30T00:04:34.516Z,16.5
2017-06-30T00:04:55.199Z,16.6
2017-06-30T00:05:16.515Z,16.6
2017-06-30T00:05:37.178Z,16.6
2017-06-30T00:05:57.846Z,16.6
2017-06-30T00:06:18.500Z,16.5
2017-06-30T00:06:39.159Z,16.7
2017-06-30T00:06:59.808Z,16.6
2017-06-30T00:07:20.509Z,16.5
2017-06-30T00:07:41.188Z,16.6
2017-06-30T00:08:01.847Z,16.6
2017-06-30T00:08:22.535Z,16.7
2017-06-30T00:08:43.192Z,16.7
2017-06-30T00:09:03.852Z,16.6
2017-06-30T00:09:24.508Z,16.6
2017-06-30T00:09:45.150Z,16.6
2017-06-30T00:10:05.811Z,16.6
2017-06-30T00:10:26.460Z,16.5
2017-06-30T00:10:47.112Z,16.6
2017-06-30T00:11:07.758Z,16.5
2017-06-30T00:11:28.413Z,16.6
2017-06-30T00:11:49.068Z,16.5
2017-06-30T00:12:09.721Z,16.5
2017-06-30T00:12:31.157Z,16.5
2017-06-30T00:12:51.822Z,16.5
2017-06-30T00:13:12.476Z,16.6
2017-06-30T00:13:33.154Z,16.5
2017-06-30T00:13:53.808Z,16.5
2017-06-30T00:14:14.451Z,16.5
2017-06-30T00:14:35.116Z,16.5
2017-06-30T00:14:55.792Z,16.5
2017-06-30T00:15:16.471Z,16.6
2017-06-30T00:15:37.160Z,16.5
2017-06-30T00:15:58.651Z,16.5
2017-06-30T00:16:19.298Z,16.6
2017-06-30T00:16:40.009Z,16.5
2017-06-30T00:17:00.648Z,16.5
2017-06-30T00:17:21.337Z,16.6
2017-06-30T00:17:42.600Z,16.6
2017-06-30T00:18:03.266Z,16.5
2017-06-30T00:18:23.923Z,16.5
2017-06-30T00:18:44.616Z,16.5
2017-06-30T00:19:05.271Z,16.6
2017-06-30T00:19:26.530Z,16.6
2017-06-30T00:19:47.199Z,16.5
2017-06-30T00:20:07.867Z,16.6
2017-06-30T00:20:28.531Z,16.5
2017-06-30T00:20:49.229Z,16.6
2017-06-30T00:21:09.884Z,16.5
2017-06-30T00:21:30.540Z,16.6
2017-06-30T00:21:52.497Z,16.6
2017-06-30T00:22:13.203Z,16.5
2017-06-30T00:22:33.859Z,16.5
2017-06-30T00:22:54.512Z,16.6
2017-06-30T00:23:15.187Z,16.6
2017-06-30T00:23:35.839Z,16.7
2017-06-30T00:23:57.081Z,16.5
2017-06-30T00:24:19.501Z,16.7
2017-06-30T00:24:40.174Z,16.5
2017-06-30T00:25:01.428Z,16.5
2017-06-30T00:25:22.099Z,16.6
2017-06-30T00:25:42.834Z,16.6
2017-06-30T00:26:03.524Z,16.5
2017-06-30T00:26:24.240Z,16.5
2017-06-30T00:26:44.888Z,16.6
2017-06-30T00:27:05.534Z,16.5
2017-06-30T00:27:26.201Z,16.6
2017-06-30T00:27:47.566Z,16.5
2017-06-30T00:28:08.211Z,16.6
2017-06-30T00:28:28.874Z,16.6
2017-06-30T00:28:49.586Z,16.6
2017-06-30T00:29:10.240Z,16.6
2017-06-30T00:29:30.901Z,16.5
2017-06-30T00:29:51.577Z,16.6
2017-06-30T00:30:13.094Z,16.5
2017-06-30T00:30:33.746Z,16.5
2017-06-30T00:30:56.916Z,16.5
2017-06-30T00:31:17.579Z,16.5
2017-06-30T00:31:38.247Z,16.5
2017-06-30T00:31:58.900Z,16.5
2017-06-30T00:32:19.561Z,16.5
2017-06-30T00:32:40.244Z,16.5
2017-06-30T00:33:01.508Z,16.5
2017-06-30T00:33:22.174Z,16.6
2017-06-30T00:33:42.832Z,16.5
2017-06-30T00:34:03.510Z,16.5
2017-06-30T00:34:25.030Z,16.6
2017-06-30T00:34:45.678Z,16.5
2017-06-30T00:35:06.328Z,16.5
2017-06-30T00:35:27.902Z,16.5
2017-06-30T00:35:48.561Z,16.5
2017-06-30T00:36:10.067Z,16.5
2017-06-30T00:36:31.558Z,16.5
2017-06-30T00:36:52.225Z,16.6
2017-06-30T00:37:12.868Z,16.6
2017-06-30T00:37:34.513Z,16.6
2017-06-30T00:37:55.190Z,16.7
2017-06-30T00:38:15.855Z,16.5
2017-06-30T00:38:36.518Z,16.7
2017-06-30T00:38:57.165Z,16.5
2017-06-30T00:39:17.810Z,16.6
2017-06-30T00:39:38.467Z,16.5
2017-06-30T00:39:59.129Z,16.6
2017-06-30T00:40:19.810Z,16.5
2017-06-30T00:40:40.468Z,16.7
2017-06-30T00:41:01.143Z,16.7
2017-06-30T00:41:21.860Z,16.6
2017-06-30T00:41:42.578Z,16.6
2017-06-30T00:42:03.250Z,16.5
2017-06-30T00:42:23.885Z,16.6
2017-06-30T00:42:44.598Z,16.5
2017-06-30T00:43:05.978Z,16.5
2017-06-30T00:43:26.629Z,16.5
2017-06-30T00:43:47.283Z,16.6
2017-06-30T00:44:07.960Z,16.5
2017-06-30T00:44:29.513Z,16.6
2017-06-30T00:44:50.177Z,16.6
2017-06-30T00:45:10.859Z,16.6
2017-06-30T00:45:31.526Z,16.6
2017-06-30T00:45:52.254Z,16.6
2017-06-30T00:46:13.524Z,16.6
2017-06-30T00:46:35.025Z,16.7
2017-06-30T00:46:55.679Z,16.6
2017-06-30T00:47:16.326Z,16.6
2017-06-30T00:47:36.970Z,16.6
2017-06-30T00:47:58.910Z,16.6
2017-06-30T00:48:21.026Z,16.6
2017-06-30T00:48:41.702Z,16.6
2017-06-30T00:49:02.342Z,16.6
2017-06-30T00:49:22.998Z,16.6
2017-06-30T00:49:43.633Z,16.7
2017-06-30T00:50:04.295Z,16.7
2017-06-30T00:50:24.977Z,16.7
2017-06-30T00:50:45.645Z,16.8
2017-06-30T00:51:06.321Z,16.7
2017-06-30T00:51:26.966Z,16.7
2017-06-30T00:51:47.614Z,16.8
2017-06-30T00:52:08.248Z,16.7
2017-06-30T00:52:28.897Z,16.8
2017-06-30T00:52:49.606Z,16.8
2017-06-30T00:53:11.080Z,16.7
2017-06-30T00:53:31.715Z,16.7
2017-06-30T00:53:53.600Z,16.7
2017-06-30T00:54:14.260Z,16.7
2017-06-30T00:54:34.957Z,16.7
2017-06-30T00:54:55.678Z,16.6
2017-06-30T00:55:16.361Z,16.6
2017-06-30T00:55:37.019Z,16.7
2017-06-30T00:55:57.669Z,16.6
2017-06-30T00:56:18.336Z,16.6
2017-06-30T00:56:38.990Z,16.6
2017-06-30T00:56:59.636Z,16.6
2017-06-30T00:57:21.072Z,16.6
2017-06-30T00:57:41.714Z,16.6
2017-06-30T00:58:02.362Z,16.6
2017-06-30T00:58:23.015Z,16.6
2017-06-30T00:58:43.680Z,16.6
2017-06-30T00:59:05.015Z,16.7
2017-06-30T00:59:25.659Z,16.6
2017-06-30T00:59:46.333Z,16.5
2017-06-30T01:00:07.033Z,16.7
2017-06-30T01:00:27.680Z,16.6
2017-06-30T01:00:48.332Z,16.7
2017-06-30T01:01:09.044Z,16.7
2017-06-30T01:01:29.705Z,16.5
2017-06-30T01:01:51.098Z,16.5
2017-06-30T01:02:12.653Z,16.6
2017-06-30T01:02:33.309Z,16.5
2017-06-30T01:02:53.946Z,16.5
2017-06-30T01:03:16.514Z,16.5
2017-06-30T01:03:37.150Z,16.5
2017-06-30T01:03:57.823Z,16.6
2017-06-30T01:04:18.469Z,16.5
2017-06-30T01:04:39.138Z,16.5
2017-06-30T01:04:59.806Z,16.6
2017-06-30T01:05:21.037Z,16.5
2017-06-30T01:05:41.719Z,16.5
2017-06-30T01:06:02.370Z,16.5
2017-06-30T01:06:23.007Z,16.5
2017-06-30T01:06:43.669Z,16.5
2017-06-30T01:07:05.032Z,16.5
2017-06-30T01:07:25.688Z,16.5
2017-06-30T01:07:47.092Z,16.4
2017-06-30T01:08:07.776Z,16.5
2017-06-30T01:08:28.450Z,16.5
2017-06-30T01:08:49.106Z,16.4
2017-06-30T01:09:09.787Z,16.5
2017-06-30T01:09:30.445Z,16.4
2017-06-30T01:09:51.149Z,16.5
2017-06-30T01:10:11.802Z,16.5
2017-06-30T01:10:32.577Z,16.4
2017-06-30T01:10:54.008Z,16.4
2017-06-30T01:11:14.681Z,16.4
2017-06-30T01:11:35.321Z,16.4
2017-06-30T01:11:55.977Z,16.4
2017-06-30T01:12:16.659Z,16.4
2017-06-30T01:12:37.307Z,16.4
2017-06-30T01:12:57.956Z,16.4
2017-06-30T01:13:18.621Z,16.4
2017-06-30T01:13:39.311Z,16.4
2017-06-30T01:13:59.965Z,16.4
2017-06-30T01:14:20.631Z,16.4
2017-06-30T01:14:41.281Z,16.4
2017-06-30T01:15:01.930Z,16.4
2017-06-30T01:15:23.929Z,16.4
2017-06-30T01:15:44.589Z,16.4
2017-06-30T01:16:05.304Z,16.4
2017-06-30T01:16:26.645Z,16.4
2017-06-30T01:16:47.302Z,16.5
2017-06-30T01:17:07.954Z,16.4
2017-06-30T01:17:28.632Z,16.4
2017-06-30T01:17:49.314Z,16.4
2017-06-30T01:18:09.974Z,16.3
2017-06-30T01:18:31.632Z,16.3
2017-06-30T01:18:52.272Z,16.4
2017-06-30T01:19:12.926Z,16.4
2017-06-30T01:19:33.572Z,16.4
2017-06-30T01:19:54.201Z,16.4
2017-06-30T01:20:14.861Z,16.4
2017-06-30T01:20:35.565Z,16.4
2017-06-30T01:20:56.254Z,16.3
2017-06-30T01:21:17.568Z,16.3
2017-06-30T01:21:38.241Z,16.3
2017-06-30T01:21:59.433Z,16.3
2017-06-30T01:22:21.086Z,16.4
2017-06-30T01:22:41.740Z,16.4
2017-06-30T01:23:03.110Z,16.5
2017-06-30T01:23:23.772Z,16.4
2017-06-30T01:23:44.417Z,16.4
2017-06-30T01:24:05.056Z,16.5
2017-06-30T01:24:25.746Z,16.5
2017-06-30T01:24:46.435Z,16.5
2017-06-30T01:25:07.073Z,16.4
2017-06-30T01:25:27.739Z,16.4
2017-06-30T01:25:48.421Z,16.4
2017-06-30T01:26:09.055Z,16.4
2017-06-30T01:26:30.441Z,16.4
2017-06-30T01:26:51.104Z,16.4
2017-06-30T01:27:11.794Z,16.3
2017-06-30T01:27:32.435Z,16.5
2017-06-30T01:27:54.049Z,16.4
2017-06-30T01:28:15.554Z,16.4
2017-06-30T01:28:36.235Z,16.5
2017-06-30T01:28:56.911Z,16.5
2017-06-30T01:29:17.554Z,16.5
2017-06-30T01:29:38.228Z,16.5
2017-06-30T01:29:58.890Z,16.5
2017-06-30T01:30:19.592Z,16.5
2017-06-30T01:30:40.240Z,16.5
2017-06-30T01:31:00.932Z,16.5
2017-06-30T01:31:21.607Z,16.5
2017-06-30T01:31:42.282Z,16.4
2017-06-30T01:32:02.941Z,16.4
2017-06-30T01:32:24.556Z,16.4
2017-06-30T01:32:45.209Z,16.5
2017-06-30T01:33:05.879Z,16.4
2017-06-30T01:33:26.519Z,16.4
2017-06-30T01:33:47.239Z,16.4
2017-06-30T01:34:07.897Z,16.4
2017-06-30T01:34:28.559Z,16.5
2017-06-30T01:34:49.250Z,16.5
2017-06-30T01:35:09.924Z,16.5
2017-06-30T01:35:30.576Z,16.5
2017-06-30T01:35:52.020Z,16.4
2017-06-30T01:36:13.564Z,16.4
2017-06-30T01:36:34.216Z,16.4
2017-06-30T01:36:54.880Z,16.5
2017-06-30T01:37:15.564Z,16.4
2017-06-30T01:37:36.223Z,16.4
2017-06-30T01:37:56.882Z,16.4
2017-06-30T01:38:17.556Z,16.4
2017-06-30T01:38:38.207Z,16.4
2017-06-30T01:38:58.858Z,16.4
2017-06-30T01:39:19.552Z,16.4
2017-06-30T01:39:41.061Z,16.4
2017-06-30T01:40:01.731Z,16.4
2017-06-30T01:40:22.388Z,16.3
2017-06-30T01:40:43.036Z,16.4
2017-06-30T01:41:03.720Z,16.4
2017-06-30T01:41:24.373Z,16.4
2017-06-30T01:41:45.042Z,16.4
2017-06-30T01:42:05.694Z,16.3
2017-06-30T01:42:26.339Z,16.4
2017-06-30T01:42:46.985Z,16.4
2017-06-30T01:43:07.636Z,16.5
2017-06-30T01:43:28.350Z,16.5
2017-06-30T01:43:49.011Z,16.5
2017-06-30T01:44:09.701Z,16.3
2017-06-30T01:44:30.375Z,16.5
2017-06-30T01:44:51.050Z,16.4
2017-06-30T01:45:11.729Z,16.4
2017-06-30T01:45:32.374Z,16.5
2017-06-30T01:45:53.036Z,16.4
2017-06-30T01:46:13.791Z,16.4
2017-06-30T01:46:35.065Z,16.4
2017-06-30T01:46:55.706Z,16.4
2017-06-30T01:47:16.335Z,16.4
2017-06-30T01:47:37.017Z,16.4
2017-06-30T01:47:57.710Z,16.4
2017-06-30T01:48:18.398Z,16.4
2017-06-30T01:48:39.055Z,16.4
2017-06-30T01:48:59.738Z,16.5
2017-06-30T01:49:20.388Z,16.4
2017-06-30T01:49:41.053Z,16.5
2017-06-30T01:50:01.707Z,16.4
2017-06-30T01:50:22.356Z,16.4
2017-06-30T01:50:43.024Z,16.4
2017-06-30T01:51:03.666Z,16.4
2017-06-30T01:51:24.345Z,16.4
2017-06-30T01:51:44.999Z,16.5
2017-06-30T01:52:06.663Z,16.5
2017-06-30T01:52:27.305Z,16.4
2017-06-30T01:52:47.970Z,16.5
2017-06-30T01:53:09.566Z,16.4
2017-06-30T01:53:30.986Z,16.5
2017-06-30T01:53:51.636Z,16.3
2017-06-30T01:54:12.285Z,16.5
2017-06-30T01:54:33.020Z,16.5
2017-06-30T01:54:55.560Z,16.4
2017-06-30T01:55:16.211Z,16.5
2017-06-30T01:55:37.654Z,16.5
2017-06-30T01:55:58.290Z,16.5
2017-06-30T01:56:18.943Z,16.4
2017-06-30T01:56:39.603Z,16.4
2017-06-30T01:57:02.043Z,16.5
2017-06-30T01:57:22.704Z,16.5
2017-06-30T01:57:43.357Z,16.5
2017-06-30T01:58:04.018Z,16.4
2017-06-30T01:58:24.669Z,16.4
2017-06-30T01:58:45.338Z,16.4
2017-06-30T01:59:05.989Z,16.4
2017-06-30T01:59:26.633Z,16.4
2017-06-30T01:59:47.273Z,16.4
2017-06-30T02:00:07.904Z,16.5
2017-06-30T02:00:28.579Z,16.4
2017-06-30T02:00:49.245Z,16.5
2017-06-30T02:01:09.892Z,16.4
2017-06-30T02:01:30.577Z,16.4
2017-06-30T02:01:51.263Z,16.3
2017-06-30T02:02:11.921Z,16.4
2017-06-30T02:02:32.569Z,16.4
2017-06-30T02:02:53.280Z,16.3
2017-06-30T02:03:14.567Z,16.3
2017-06-30T02:03:35.256Z,16.3
2017-06-30T02:03:55.928Z,16.3
2017-06-30T02:04:16.579Z,16.3
2017-06-30T02:04:37.259Z,16.2
2017-06-30T02:04:57.902Z,16.3
2017-06-30T02:05:18.572Z,16.3
2017-06-30T02:05:39.263Z,16.3
2017-06-30T02:05:59.906Z,16.3
2017-06-30T02:06:20.556Z,16.3
2017-06-30T02:06:41.210Z,16.3
2017-06-30T02:07:01.864Z,16.3
2017-06-30T02:07:22.525Z,16.2
2017-06-30T02:07:43.196Z,16.2
2017-06-30T02:08:03.868Z,16.3
2017-06-30T02:08:24.544Z,16.3
2017-06-30T02:08:45.190Z,16.2
2017-06-30T02:09:05.850Z,16.3
2017-06-30T02:09:26.510Z,16.2
2017-06-30T02:09:47.219Z,16.3
2017-06-30T02:10:07.889Z,16.3
2017-06-30T02:10:28.557Z,16.3
2017-06-30T02:10:49.217Z,16.2
2017-06-30T02:11:10.588Z,16.3
2017-06-30T02:11:32.068Z,16.4
2017-06-30T02:11:52.748Z,16.3
2017-06-30T02:12:13.384Z,16.3
2017-06-30T02:12:34.021Z,16.3
2017-06-30T02:12:55.501Z,16.3
2017-06-30T02:13:16.164Z,16.3
2017-06-30T02:13:36.819Z,16.3
2017-06-30T02:13:57.462Z,16.3
2017-06-30T02:14:18.119Z,16.3
2017-06-30T02:14:38.782Z,16.3
2017-06-30T02:14:59.972Z,16.3
2017-06-30T02:15:20.614Z,16.3
2017-06-30T02:15:42.058Z,16.4
2017-06-30T02:16:03.495Z,16.4
2017-06-30T02:16:26.099Z,16.4
2017-06-30T02:16:46.764Z,16.3
2017-06-30T02:17:08.101Z,16.4
2017-06-30T02:17:28.744Z,16.4
2017-06-30T02:17:49.389Z,16.4
2017-06-30T02:18:10.028Z,16.4
2017-06-30T02:18:30.663Z,16.4
2017-06-30T02:18:51.309Z,16.4
2017-06-30T02:19:12.577Z,16.4
2017-06-30T02:19:33.243Z,16.4
2017-06-30T02:19:53.915Z,16.3
2017-06-30T02:20:14.565Z,16.3
2017-06-30T02:20:35.214Z,16.4
2017-06-30T02:20:56.579Z,16.3
2017-06-30T02:21:17.233Z,16.4
2017-06-30T02:21:38.236Z,16.4
2017-06-30T02:22:00.674Z,16.3
2017-06-30T02:22:22.479Z,16.4
2017-06-30T02:22:43.162Z,16.3
2017-06-30T02:23:03.802Z,16.4
2017-06-30T02:23:24.511Z,16.4
2017-06-30T02:23:46.001Z,16.4
2017-06-30T02:24:06.657Z,16.3
2017-06-30T02:24:27.337Z,16.4
2017-06-30T02:24:47.998Z,16.4
2017-06-30T02:25:08.647Z,16.4
2017-06-30T02:25:29.293Z,16.3
2017-06-30T02:25:49.952Z,16.3
2017-06-30T02:26:10.622Z,16.3
2017-06-30T02:26:32.156Z,16.3
2017-06-30T02:26:52.807Z,16.3
2017-06-30T02:27:13.462Z,16.3
2017-06-30T02:27:34.152Z,16.3
2017-06-30T02:27:54.812Z,16.3
2017-06-30T02:28:15.461Z,16.3
2017-06-30T02:28:37.015Z,16.3
2017-06-30T02:28:57.681Z,16.2
2017-06-30T02:29:18.328Z,16.3
2017-06-30T02:29:39.592Z,16.4
2017-06-30T02:30:00.258Z,16.3
2017-06-30T02:30:20.927Z,16.4
2017-06-30T02:30:42.285Z,16.4
2017-06-30T02:31:02.939Z,16.3
2017-06-30T02:31:23.624Z,16.3
2017-06-30T02:31:44.298Z,16.4
2017-06-30T02:32:04.951Z,16.4
2017-06-30T02:32:26.158Z,16.4
2017-06-30T02:32:46.825Z,16.5
2017-06-30T02:33:07.496Z,16.4
2017-06-30T02:33:28.634Z,16.4
2017-06-30T02:33:49.334Z,16.4
2017-06-30T02:34:09.990Z,16.4
2017-06-30T02:34:30.627Z,16.5
2017-06-30T02:34:51.296Z,16.4
2017-06-30T02:35:11.950Z,16.4
2017-06-30T02:35:32.611Z,16.4
2017-06-30T02:35:53.306Z,16.4
2017-06-30T02:36:13.946Z,16.4
2017-06-30T02:36:34.603Z,16.4
2017-06-30T02:36:55.254Z,16.4
2017-06-30T02:37:15.928Z,16.5
2017-06-30T02:37:36.585Z,16.5
2017-06-30T02:37:57.228Z,16.4
2017-06-30T02:38:17.875Z,16.4
2017-06-30T02:38:38.568Z,16.4
2017-06-30T02:38:59.271Z,16.4
2017-06-30T02:39:19.915Z,16.3
2017-06-30T02:39:40.578Z,16.4
2017-06-30T02:40:01.249Z,16.4
2017-06-30T02:40:22.587Z,16.4
2017-06-30T02:40:44.074Z,16.4
2017-06-30T02:41:05.602Z,16.4
2017-06-30T02:41:26.256Z,16.4
2017-06-30T02:41:46.899Z,16.4
2017-06-30T02:42:07.567Z,16.4
2017-06-30T02:42:28.228Z,16.4
2017-06-30T02:42:48.883Z,16.4
2017-06-30T02:43:10.054Z,16.4
2017-06-30T02:43:30.707Z,16.4
2017-06-30T02:43:51.356Z,16.5
2017-06-30T02:44:12.005Z,16.4
2017-06-30T02:44:32.690Z,16.4
2017-06-30T02:44:53.995Z,16.4
2017-06-30T02:45:14.667Z,16.5
2017-06-30T02:45:35.335Z,16.5
2017-06-30T02:45:56.026Z,16.5
2017-06-30T02:46:16.749Z,16.5
2017-06-30T02:46:37.437Z,16.4
2017-06-30T02:46:58.098Z,16.5
2017-06-30T02:47:19.586Z,16.5
2017-06-30T02:47:40.249Z,16.5
2017-06-30T02:48:00.897Z,16.5
2017-06-30T02:48:21.539Z,16.4
2017-06-30T02:48:42.223Z,16.5
2017-06-30T02:49:02.875Z,16.5
2017-06-30T02:49:24.096Z,16.6
2017-06-30T02:49:46.621Z,16.5
2017-06-30T02:50:07.263Z,16.5
2017-06-30T02:50:27.923Z,16.5
2017-06-30T02:50:48.561Z,16.5
2017-06-30T02:51:09.228Z,16.5
2017-06-30T02:51:29.875Z,16.4
2017-06-30T02:51:51.068Z,16.4
2017-06-30T02:52:12.564Z,16.5
2017-06-30T02:52:33.219Z,16.4
2017-06-30T02:52:53.862Z,16.5
2017-06-30T02:53:14.556Z,16.4
2017-06-30T02:53:35.267Z,16.5
2017-06-30T02:53:55.918Z,16.5
2017-06-30T02:54:16.565Z,16.5
2017-06-30T02:54:37.263Z,16.5
2017-06-30T02:54:57.909Z,16.5
2017-06-30T02:55:19.137Z,16.5
2017-06-30T02:55:39.777Z,16.5
2017-06-30T02:56:00.433Z,16.6
2017-06-30T02:56:21.092Z,16.5
2017-06-30T02:56:41.728Z,16.6
2017-06-30T02:57:02.373Z,16.6
2017-06-30T02:57:23.032Z,16.6
2017-06-30T02:57:43.689Z,16.6
2017-06-30T02:58:04.373Z,16.6
2017-06-30T02:58:25.068Z,16.6
2017-06-30T02:58:47.607Z,16.7
2017-06-30T02:59:08.266Z,16.6
2017-06-30T02:59:28.947Z,16.6
2017-06-30T02:59:49.590Z,16.6
2017-06-30T03:00:12.029Z,16.7
2017-06-30T03:00:32.668Z,16.7
2017-06-30T03:00:53.372Z,16.6
2017-06-30T03:01:14.046Z,16.6
2017-06-30T03:01:34.695Z,16.6
2017-06-30T03:01:55.340Z,16.6
2017-06-30T03:02:15.999Z,16.6
2017-06-30T03:02:36.648Z,16.5
2017-06-30T03:02:57.293Z,16.5
2017-06-30T03:03:18.678Z,16.5
2017-06-30T03:03:40.684Z,16.6
2017-06-30T03:04:01.364Z,16.5
2017-06-30T03:04:22.012Z,16.5
2017-06-30T03:04:42.662Z,16.5
2017-06-30T03:05:03.361Z,16.5
2017-06-30T03:05:24.010Z,16.5
2017-06-30T03:05:44.758Z,16.5
2017-06-30T03:06:05.509Z,16.6
2017-06-30T03:06:26.668Z,16.6
2017-06-30T03:06:47.425Z,16.5
2017-06-30T03:07:08.279Z,16.5
2017-06-30T03:07:28.951Z,16.6
2017-06-30T03:07:49.608Z,16.5
2017-06-30T03:08:10.284Z,16.6
2017-06-30T03:08:31.161Z,16.5
2017-06-30T03:08:52.520Z,16.7
2017-06-30T03:09:14.660Z,16.6
2017-06-30T03:09:35.453Z,16.5
2017-06-30T03:09:56.103Z,16.6
2017-06-30T03:10:17.802Z,16.6
2017-06-30T03:10:39.173Z,16.6
2017-06-30T03:10:59.880Z,16.6
2017-06-30T03:11:20.536Z,16.6
2017-06-30T03:11:41.341Z,16.7
2017-06-30T03:12:02.257Z,16.5
2017-06-30T03:12:22.964Z,16.6
2017-06-30T03:12:43.745Z,16.6
2017-06-30T03:13:04.490Z,16.5
2017-06-30T03:13:25.154Z,16.6
2017-06-30T03:13:45.932Z,16.5
2017-06-30T03:14:06.624Z,16.6
2017-06-30T03:14:27.523Z,16.6
2017-06-30T03:14:48.225Z,16.6
2017-06-30T03:15:09.047Z,16.6
2017-06-30T03:15:29.778Z,16.6
2017-06-30T03:15:50.468Z,16.6
2017-06-30T03:16:12.596Z,16.7
2017-06-30T03:16:33.270Z,16.7
2017-06-30T03:16:54.701Z,16.6
2017-06-30T03:17:17.017Z,16.6
2017-06-30T03:17:38.233Z,16.6
2017-06-30T03:17:59.652Z,16.6
2017-06-30T03:18:20.341Z,16.6
2017-06-30T03:18:41.083Z,16.6
2017-06-30T03:19:01.870Z,16.6
2017-06-30T03:19:22.544Z,16.6
2017-06-30T03:19:43.331Z,16.7
2017-06-30T03:20:04.608Z,16.6
2017-06-30T03:20:25.297Z,16.8
2017-06-30T03:20:46.537Z,16.8
2017-06-30T03:21:07.224Z,16.7
2017-06-30T03:21:27.907Z,16.7
2017-06-30T03:21:48.554Z,16.7
2017-06-30T03:22:09.284Z,16.7
2017-06-30T03:22:30.541Z,16.7
2017-06-30T03:22:51.190Z,16.6
2017-06-30T03:23:11.848Z,16.7
2017-06-30T03:23:32.557Z,16.8
2017-06-30T03:23:53.655Z,16.6
2017-06-30T03:24:15.115Z,16.7
2017-06-30T03:24:35.775Z,16.7
2017-06-30T03:24:57.193Z,16.8
2017-06-30T03:25:17.845Z,16.8
2017-06-30T03:25:38.523Z,16.7
2017-06-30T03:25:59.191Z,16.7
2017-06-30T03:26:19.846Z,16.8
2017-06-30T03:26:40.502Z,16.7
2017-06-30T03:27:01.256Z,16.7
2017-06-30T03:27:21.918Z,16.7
2017-06-30T03:27:42.582Z,16.7
2017-06-30T03:28:03.251Z,16.7
2017-06-30T03:28:23.932Z,16.7
2017-06-30T03:28:44.582Z,16.7
2017-06-30T03:29:05.219Z,16.8
2017-06-30T03:29:25.874Z,16.8
2017-06-30T03:29:46.698Z,16.7
2017-06-30T03:30:08.333Z,16.7
2017-06-30T03:30:29.038Z,16.7
2017-06-30T03:30:49.700Z,16.7
2017-06-30T03:31:10.386Z,16.7
2017-06-30T03:31:31.082Z,16.7
2017-06-30T03:31:51.829Z,16.7
2017-06-30T03:32:12.511Z,16.7
2017-06-30T03:32:33.184Z,16.7
2017-06-30T03:32:53.842Z,16.8
2017-06-30T03:33:14.513Z,16.7
2017-06-30T03:33:35.157Z,16.7
2017-06-30T03:33:55.949Z,16.8
2017-06-30T03:34:16.659Z,16.7
2017-06-30T03:34:38.115Z,16.8
2017-06-30T03:34:58.832Z,16.8
2017-06-30T03:35:19.512Z,16.7
2017-06-30T03:35:40.189Z,16.7
2017-06-30T03:36:00.856Z,16.8
2017-06-30T03:36:21.524Z,16.7
2017-06-30T03:36:42.186Z,16.8
2017-06-30T03:37:02.885Z,16.8
2017-06-30T03:37:23.577Z,16.8
2017-06-30T03:37:44.226Z,16.7
2017-06-30T03:38:04.857Z,16.8
2017-06-30T03:38:25.511Z,16.8
2017-06-30T03:38:46.207Z,16.8
2017-06-30T03:39:06.876Z,16.8
2017-06-30T03:39:27.598Z,16.7
2017-06-30T03:39:48.254Z,16.8
2017-06-30T03:40:08.994Z,16.8
2017-06-30T03:40:29.726Z,16.8
2017-06-30T03:40:50.406Z,16.7
2017-06-30T03:41:11.153Z,16.8
2017-06-30T03:41:31.867Z,16.8
2017-06-30T03:41:52.521Z,16.8
2017-06-30T03:42:13.180Z,16.7
2017-06-30T03:42:33.854Z,16.8
2017-06-30T03:42:54.584Z,16.8
2017-06-30T03:43:15.262Z,16.8
2017-06-30T03:43:35.916Z,16.8
2017-06-30T03:43:56.623Z,16.8
2017-06-30T03:44:18.202Z,16.8
2017-06-30T03:44:38.887Z,16.8
2017-06-30T03:44:59.540Z,16.8
2017-06-30T03:45:20.217Z,16.8
2017-06-30T03:45:40.909Z,16.8
2017-06-30T03:46:01.576Z,16.9
2017-06-30T03:46:22.257Z,16.9
2017-06-30T03:46:43.739Z,16.8
2017-06-30T03:47:05.066Z,16.9
2017-06-30T03:47:25.735Z,16.9
2017-06-30T03:47:46.443Z,17
2017-06-30T03:48:08.039Z,16.8
2017-06-30T03:48:28.760Z,16.8
2017-06-30T03:48:49.418Z,16.9
2017-06-30T03:49:10.120Z,16.9
2017-06-30T03:49:30.814Z,16.9
2017-06-30T03:49:52.152Z,16.9
2017-06-30T03:50:13.665Z,16.9
2017-06-30T03:50:34.321Z,17
2017-06-30T03:50:55.106Z,17
2017-06-30T03:51:15.765Z,17
2017-06-30T03:51:36.433Z,16.9
2017-06-30T03:51:57.130Z,17
2017-06-30T03:52:17.820Z,17
2017-06-30T03:52:40.040Z,17
2017-06-30T03:53:00.743Z,17
2017-06-30T03:53:21.444Z,17
2017-06-30T03:53:42.130Z,17
2017-06-30T03:54:02.779Z,16.9
2017-06-30T03:54:23.431Z,16.9
2017-06-30T03:54:44.634Z,16.9
2017-06-30T03:55:05.346Z,17
2017-06-30T03:55:26.010Z,17
2017-06-30T03:55:46.664Z,17
2017-06-30T03:56:07.320Z,17
2017-06-30T03:56:28.009Z,16.9
2017-06-30T03:56:48.674Z,16.9
2017-06-30T03:57:09.321Z,17
2017-06-30T03:57:29.969Z,17
2017-06-30T03:57:51.168Z,17
2017-06-30T03:58:11.849Z,17
2017-06-30T03:58:33.203Z,17
2017-06-30T03:58:53.851Z,17
2017-06-30T03:59:14.530Z,17
2017-06-30T03:59:36.190Z,17.1
2017-06-30T03:59:56.871Z,17.1
2017-06-30T04:00:17.531Z,17.1
2017-06-30T04:00:39.653Z,17
2017-06-30T04:01:00.322Z,17
2017-06-30T04:01:20.985Z,17
2017-06-30T04:01:42.163Z,17
2017-06-30T04:02:03.549Z,17
2017-06-30T04:02:24.200Z,17
2017-06-30T04:02:45.578Z,17
2017-06-30T04:03:06.249Z,17
2017-06-30T04:03:26.893Z,17
2017-06-30T04:03:48.237Z,17.1
2017-06-30T04:04:08.888Z,17
2017-06-30T04:04:29.604Z,17.1
2017-06-30T04:04:51.162Z,17
2017-06-30T04:05:12.722Z,17
2017-06-30T04:05:33.373Z,17
2017-06-30T04:05:54.049Z,17.1
2017-06-30T04:06:14.706Z,17.2
2017-06-30T04:06:35.464Z,17
2017-06-30T04:06:56.732Z,17
2017-06-30T04:07:17.380Z,17.1
2017-06-30T04:07:38.077Z,17
2017-06-30T04:07:58.795Z,17
2017-06-30T04:08:19.450Z,17
2017-06-30T04:08:40.095Z,17
2017-06-30T04:09:00.747Z,17
2017-06-30T04:09:22.053Z,17
2017-06-30T04:09:43.660Z,17
2017-06-30T04:10:05.154Z,17
2017-06-30T04:10:25.858Z,17
2017-06-30T04:10:46.498Z,17
2017-06-30T04:11:08.054Z,17.1
2017-06-30T04:11:28.709Z,17
2017-06-30T04:11:50.227Z,17
2017-06-30T04:12:10.905Z,17
2017-06-30T04:12:31.650Z,17.1
2017-06-30T04:12:52.321Z,17
2017-06-30T04:13:14.684Z,17
2017-06-30T04:13:35.327Z,17.1
2017-06-30T04:13:55.986Z,17.1
2017-06-30T04:14:18.142Z,17
2017-06-30T04:14:38.806Z,17.1
2017-06-30T04:15:00.187Z,17
2017-06-30T04:15:20.851Z,17
2017-06-30T04:15:41.501Z,17
2017-06-30T04:16:02.149Z,17.1
2017-06-30T04:16:23.805Z,17.1
2017-06-30T04:16:44.471Z,17.2
2017-06-30T04:17:05.160Z,17
2017-06-30T04:17:26.670Z,17.1
2017-06-30T04:17:49.132Z,17.1
2017-06-30T04:18:10.715Z,17
2017-06-30T04:18:32.089Z,17
2017-06-30T04:18:54.573Z,17
2017-06-30T04:19:15.241Z,17.1
2017-06-30T04:19:37.213Z,17.1
2017-06-30T04:19:57.872Z,17
2017-06-30T04:20:19.078Z,17
2017-06-30T04:20:39.719Z,17
2017-06-30T04:21:00.411Z,17
2017-06-30T04:21:22.677Z,17.1
2017-06-30T04:21:44.064Z,17
2017-06-30T04:22:05.664Z,17
2017-06-30T04:22:26.334Z,17
2017-06-30T04:22:46.988Z,17
2017-06-30T04:23:08.161Z,17
2017-06-30T04:23:29.649Z,17.1
2017-06-30T04:23:51.204Z,17
2017-06-30T04:24:11.897Z,17.1
2017-06-30T04:24:32.550Z,17
2017-06-30T04:24:53.231Z,17
2017-06-30T04:25:13.908Z,17
2017-06-30T04:25:34.587Z,17
2017-06-30T04:25:55.806Z,17.1
2017-06-30T04:26:16.518Z,17.1
2017-06-30T04:26:37.198Z,17.1
2017-06-30T04:26:58.686Z,17.1
2017-06-30T04:27:19.371Z,17.1
2017-06-30T04:27:40.061Z,17
2017-06-30T04:28:00.750Z,17.1
2017-06-30T04:28:21.387Z,17
2017-06-30T04:28:42.057Z,17
2017-06-30T04:29:03.726Z,17
2017-06-30T04:29:24.381Z,17.1
2017-06-30T04:29:45.036Z,17
2017-06-30T04:30:05.746Z,17
2017-06-30T04:30:26.471Z,17.1
2017-06-30T04:30:48.102Z,17.1
2017-06-30T04:31:09.640Z,17.1
2017-06-30T04:31:30.285Z,17.1
2017-06-30T04:31:50.975Z,17
2017-06-30T04:32:11.610Z,17.1
2017-06-30T04:32:32.320Z,17.1
2017-06-30T04:32:52.980Z,17
2017-06-30T04:33:13.665Z,17.1
2017-06-30T04:33:34.324Z,17.1
2017-06-30T04:33:54.968Z,17.1
2017-06-30T04:34:15.627Z,17.1
2017-06-30T04:34:36.273Z,17.1
2017-06-30T04:34:56.969Z,17.1
2017-06-30T04:35:18.571Z,17.1
2017-06-30T04:35:39.222Z,17.1
2017-06-30T04:36:00.600Z,17.1
2017-06-30T04:36:21.365Z,17.1
2017-06-30T04:36:42.050Z,17.2
2017-06-30T04:37:04.194Z,17.2
2017-06-30T04:37:24.874Z,17.1
2017-06-30T04:37:45.553Z,17.1
2017-06-30T04:38:06.216Z,17.1
2017-06-30T04:38:26.891Z,17.1
2017-06-30T04:38:47.540Z,17.1
2017-06-30T04:39:08.260Z,17.1